sensor_id;sensor_type;location;lat;lon;timestamp;temperature;humidity
8888;DHT22;4480;52.370;9.748;2024-02-28T00:01:02;3.80;99.90
8888;DHT22;4480;52.370;9.748;2024-02-28T00:03:29;3.80;99.90
8888;DHT22;4480;52.370;9.748;2024-02-28T00:05:57;3.70;99.90
8888;DHT22;4480;52.370;9.748;2024-02-28T00:08:24;3.60;99.90
8888;DHT22;4480;52.370;9.748;2024-02-28T00:10:52;3.60;99.90
8888;DHT22;4480;52.370;9.748;2024-02-28T00:13:19;3.60;99.90
8888;DHT22;4480;52.370;9.748;2024-02-28T00:15:48;3.60;99.90
8888;DHT22;4480;52.370;9.748;2024-02-28T00:18:14;3.60;99.90
8888;DHT22;4480;52.370;9.748;2024-02-28T00:20:41;3.60;99.90
8888;DHT22;4480;52.370;9.748;2024-02-28T00:23:10;3.60;99.90
8888;DHT22;4480;52.370;9.748;2024-02-28T00:25:37;3.60;99.90
8888;DHT22;4480;52.370;9.748;2024-02-28T00:28:05;3.60;99.90
8888;DHT22;4480;52.370;9.748;2024-02-28T00:30:32;3.60;99.90
8888;DHT22;4480;52.370;9.748;2024-02-28T00:32:59;3.70;99.90
8888;DHT22;4480;52.370;9.748;2024-02-28T00:35:27;3.70;99.90
8888;DHT22;4480;52.370;9.748;2024-02-28T00:37:55;3.60;99.90
8888;DHT22;4480;52.370;9.748;2024-02-28T00:40:21;3.60;99.90
8888;DHT22;4480;52.370;9.748;2024-02-28T00:42:48;3.60;99.90
8888;DHT22;4480;52.370;9.748;2024-02-28T00:45:16;3.60;99.90
8888;DHT22;4480;52.370;9.748;2024-02-28T00:47:43;3.50;99.90
8888;DHT22;4480;52.370;9.748;2024-02-28T00:50:10;3.50;99.90
8888;DHT22;4480;52.370;9.748;2024-02-28T00:52:37;3.50;99.90
8888;DHT22;4480;52.370;9.748;2024-02-28T00:55:04;3.50;99.90
8888;DHT22;4480;52.370;9.748;2024-02-28T00:57:31;3.50;99.90
8888;DHT22;4480;52.370;9.748;2024-02-28T00:59:58;3.50;99.90
8888;DHT22;4480;52.370;9.748;2024-02-28T01:02:26;3.50;99.90
8888;DHT22;4480;52.370;9.748;2024-02-28T01:04:53;3.50;99.90
8888;DHT22;4480;52.370;9.748;2024-02-28T01:07:20;3.60;99.90
8888;DHT22;4480;52.370;9.748;2024-02-28T01:09:47;3.60;99.90
8888;DHT22;4480;52.370;9.748;2024-02-28T01:12:13;3.50;99.90
8888;DHT22;4480;52.370;9.748;2024-02-28T01:14:40;3.50;99.90
8888;DHT22;4480;52.370;9.748;2024-02-28T01:17:07;3.50;99.90
8888;DHT22;4480;52.370;9.748;2024-02-28T01:19:35;3.50;99.90
8888;DHT22;4480;52.370;9.748;2024-02-28T01:22:01;3.50;99.90
8888;DHT22;4480;52.370;9.748;2024-02-28T01:24:28;3.50;99.90
8888;DHT22;4480;52.370;9.748;2024-02-28T01:26:55;3.50;99.90
8888;DHT22;4480;52.370;9.748;2024-02-28T01:29:22;3.40;99.90
8888;DHT22;4480;52.370;9.748;2024-02-28T01:31:48;3.40;99.90
8888;DHT22;4480;52.370;9.748;2024-02-28T01:34:15;3.40;99.90
8888;DHT22;4480;52.370;9.748;2024-02-28T01:36:43;3.30;99.90
8888;DHT22;4480;52.370;9.748;2024-02-28T01:39:10;3.20;99.90
8888;DHT22;4480;52.370;9.748;2024-02-28T01:41:37;3.20;99.90
8888;DHT22;4480;52.370;9.748;2024-02-28T01:44:04;3.10;99.90
8888;DHT22;4480;52.370;9.748;2024-02-28T01:46:31;3.00;99.90
8888;DHT22;4480;52.370;9.748;2024-02-28T01:48:58;2.90;99.90
8888;DHT22;4480;52.370;9.748;2024-02-28T01:51:26;2.80;99.90
8888;DHT22;4480;52.370;9.748;2024-02-28T01:53:54;2.80;99.90
8888;DHT22;4480;52.370;9.748;2024-02-28T01:56:23;2.70;99.90
8888;DHT22;4480;52.370;9.748;2024-02-28T01:58:51;2.70;99.90
8888;DHT22;4480;52.370;9.748;2024-02-28T02:01:18;2.60;99.90
8888;DHT22;4480;52.370;9.748;2024-02-28T02:03:45;2.60;99.90
8888;DHT22;4480;52.370;9.748;2024-02-28T02:06:12;2.50;99.90
8888;DHT22;4480;52.370;9.748;2024-02-28T02:08:38;2.40;99.90
8888;DHT22;4480;52.370;9.748;2024-02-28T02:11:07;2.30;99.90
8888;DHT22;4480;52.370;9.748;2024-02-28T02:13:34;2.20;99.90
8888;DHT22;4480;52.370;9.748;2024-02-28T02:16:01;2.20;99.90
8888;DHT22;4480;52.370;9.748;2024-02-28T02:18:28;2.10;99.90
8888;DHT22;4480;52.370;9.748;2024-02-28T02:21:00;2.00;99.90
8888;DHT22;4480;52.370;9.748;2024-02-28T02:23:30;2.00;99.90
8888;DHT22;4480;52.370;9.748;2024-02-28T02:25:57;1.90;99.90
8888;DHT22;4480;52.370;9.748;2024-02-28T02:28:23;1.90;99.90
8888;DHT22;4480;52.370;9.748;2024-02-28T02:30:50;1.90;99.90
8888;DHT22;4480;52.370;9.748;2024-02-28T02:33:17;1.80;99.90
8888;DHT22;4480;52.370;9.748;2024-02-28T02:35:44;1.80;99.90
8888;DHT22;4480;52.370;9.748;2024-02-28T02:38:10;1.80;99.90
8888;DHT22;4480;52.370;9.748;2024-02-28T02:40:38;1.70;99.90
8888;DHT22;4480;52.370;9.748;2024-02-28T02:43:05;1.70;99.90
8888;DHT22;4480;52.370;9.748;2024-02-28T02:45:32;1.60;99.90
8888;DHT22;4480;52.370;9.748;2024-02-28T02:47:58;1.60;99.90
8888;DHT22;4480;52.370;9.748;2024-02-28T02:50:25;1.50;99.90
8888;DHT22;4480;52.370;9.748;2024-02-28T02:52:52;1.50;99.90
8888;DHT22;4480;52.370;9.748;2024-02-28T02:55:19;1.50;99.90
8888;DHT22;4480;52.370;9.748;2024-02-28T02:57:47;1.40;99.90
8888;DHT22;4480;52.370;9.748;2024-02-28T03:00:14;1.40;99.90
8888;DHT22;4480;52.370;9.748;2024-02-28T03:02:41;1.40;99.90
8888;DHT22;4480;52.370;9.748;2024-02-28T03:05:08;1.30;99.90
8888;DHT22;4480;52.370;9.748;2024-02-28T03:07:35;1.30;99.90
8888;DHT22;4480;52.370;9.748;2024-02-28T03:10:01;1.30;99.90
8888;DHT22;4480;52.370;9.748;2024-02-28T03:12:28;1.20;99.90
8888;DHT22;4480;52.370;9.748;2024-02-28T03:14:56;1.20;99.90
8888;DHT22;4480;52.370;9.748;2024-02-28T03:17:23;1.10;99.90
8888;DHT22;4480;52.370;9.748;2024-02-28T03:19:50;1.10;99.90
8888;DHT22;4480;52.370;9.748;2024-02-28T03:22:17;1.10;99.90
8888;DHT22;4480;52.370;9.748;2024-02-28T03:24:43;1.10;99.90
8888;DHT22;4480;52.370;9.748;2024-02-28T03:27:10;1.10;99.90
8888;DHT22;4480;52.370;9.748;2024-02-28T03:29:37;1.10;99.90
8888;DHT22;4480;52.370;9.748;2024-02-28T03:32:06;1.10;99.90
8888;DHT22;4480;52.370;9.748;2024-02-28T03:34:32;1.00;99.90
8888;DHT22;4480;52.370;9.748;2024-02-28T03:36:59;1.00;99.90
8888;DHT22;4480;52.370;9.748;2024-02-28T03:39:26;1.00;99.90
8888;DHT22;4480;52.370;9.748;2024-02-28T03:41:52;0.90;99.90
8888;DHT22;4480;52.370;9.748;2024-02-28T03:44:19;0.90;99.90
8888;DHT22;4480;52.370;9.748;2024-02-28T03:46:47;0.80;99.90
8888;DHT22;4480;52.370;9.748;2024-02-28T03:49:15;0.80;99.90
8888;DHT22;4480;52.370;9.748;2024-02-28T03:51:42;0.70;99.90
8888;DHT22;4480;52.370;9.748;2024-02-28T03:54:09;0.70;99.90
8888;DHT22;4480;52.370;9.748;2024-02-28T03:56:36;0.60;99.90
8888;DHT22;4480;52.370;9.748;2024-02-28T03:59:02;0.60;99.90
8888;DHT22;4480;52.370;9.748;2024-02-28T04:01:29;0.60;99.90
8888;DHT22;4480;52.370;9.748;2024-02-28T04:03:56;0.60;99.90
8888;DHT22;4480;52.370;9.748;2024-02-28T04:06:24;0.60;99.90
8888;DHT22;4480;52.370;9.748;2024-02-28T04:08:51;0.60;99.90
8888;DHT22;4480;52.370;9.748;2024-02-28T04:13:14;0.60;99.90
8888;DHT22;4480;52.370;9.748;2024-02-28T04:15:41;0.60;99.90
8888;DHT22;4480;52.370;9.748;2024-02-28T04:18:07;0.60;99.90
8888;DHT22;4480;52.370;9.748;2024-02-28T04:20:34;0.50;99.90
8888;DHT22;4480;52.370;9.748;2024-02-28T04:23:01;0.50;99.90
8888;DHT22;4480;52.370;9.748;2024-02-28T04:25:28;0.50;99.90
8888;DHT22;4480;52.370;9.748;2024-02-28T04:27:54;0.50;99.90
8888;DHT22;4480;52.370;9.748;2024-02-28T04:30:22;0.50;99.90
8888;DHT22;4480;52.370;9.748;2024-02-28T04:32:49;0.50;99.90
8888;DHT22;4480;52.370;9.748;2024-02-28T04:35:16;0.50;99.90
8888;DHT22;4480;52.370;9.748;2024-02-28T04:37:44;0.50;99.90
8888;DHT22;4480;52.370;9.748;2024-02-28T04:40:11;0.50;99.90
8888;DHT22;4480;52.370;9.748;2024-02-28T04:42:38;0.50;99.90
8888;DHT22;4480;52.370;9.748;2024-02-28T04:45:06;0.50;99.90
8888;DHT22;4480;52.370;9.748;2024-02-28T04:47:34;0.50;99.90
8888;DHT22;4480;52.370;9.748;2024-02-28T04:50:01;0.50;99.90
8888;DHT22;4480;52.370;9.748;2024-02-28T04:52:28;0.50;99.90
8888;DHT22;4480;52.370;9.748;2024-02-28T04:54:55;0.40;99.90
8888;DHT22;4480;52.370;9.748;2024-02-28T04:57:22;0.40;99.90
8888;DHT22;4480;52.370;9.748;2024-02-28T04:59:49;0.40;99.90
8888;DHT22;4480;52.370;9.748;2024-02-28T05:02:15;0.40;99.90
8888;DHT22;4480;52.370;9.748;2024-02-28T05:04:44;0.40;99.90
8888;DHT22;4480;52.370;9.748;2024-02-28T05:07:11;0.40;99.90
8888;DHT22;4480;52.370;9.748;2024-02-28T05:09:38;0.40;99.90
8888;DHT22;4480;52.370;9.748;2024-02-28T05:12:06;0.50;99.90
8888;DHT22;4480;52.370;9.748;2024-02-28T05:14:33;0.50;99.90
8888;DHT22;4480;52.370;9.748;2024-02-28T05:17:00;0.40;99.90
8888;DHT22;4480;52.370;9.748;2024-02-28T05:19:26;0.40;99.90
8888;DHT22;4480;52.370;9.748;2024-02-28T05:21:54;0.40;99.90
8888;DHT22;4480;52.370;9.748;2024-02-28T05:24:21;0.40;99.90
8888;DHT22;4480;52.370;9.748;2024-02-28T05:26:48;0.40;99.90
8888;DHT22;4480;52.370;9.748;2024-02-28T05:29:15;0.50;99.90
8888;DHT22;4480;52.370;9.748;2024-02-28T05:31:41;0.60;99.90
8888;DHT22;4480;52.370;9.748;2024-02-28T05:34:08;0.70;99.90
8888;DHT22;4480;52.370;9.748;2024-02-28T05:36:35;0.80;99.90
8888;DHT22;4480;52.370;9.748;2024-02-28T05:39:03;0.80;99.90
8888;DHT22;4480;52.370;9.748;2024-02-28T05:41:31;0.90;99.90
8888;DHT22;4480;52.370;9.748;2024-02-28T05:43:58;1.00;99.90
8888;DHT22;4480;52.370;9.748;2024-02-28T05:46:24;1.10;99.90
8888;DHT22;4480;52.370;9.748;2024-02-28T05:48:51;1.10;99.90
8888;DHT22;4480;52.370;9.748;2024-02-28T05:51:18;1.20;99.90
8888;DHT22;4480;52.370;9.748;2024-02-28T05:53:45;1.20;99.90
8888;DHT22;4480;52.370;9.748;2024-02-28T05:56:13;1.20;99.90
8888;DHT22;4480;52.370;9.748;2024-02-28T05:58:41;1.30;99.90
8888;DHT22;4480;52.370;9.748;2024-02-28T06:01:08;1.30;99.90
8888;DHT22;4480;52.370;9.748;2024-02-28T06:03:35;1.40;99.90
8888;DHT22;4480;52.370;9.748;2024-02-28T06:06:02;1.40;99.90
8888;DHT22;4480;52.370;9.748;2024-02-28T06:08:31;1.50;99.90
8888;DHT22;4480;52.370;9.748;2024-02-28T06:10:58;1.50;99.90
8888;DHT22;4480;52.370;9.748;2024-02-28T06:13:27;1.60;99.90
8888;DHT22;4480;52.370;9.748;2024-02-28T06:15:54;1.60;99.90
8888;DHT22;4480;52.370;9.748;2024-02-28T06:18:20;1.60;99.90
8888;DHT22;4480;52.370;9.748;2024-02-28T06:20:48;1.60;99.90
8888;DHT22;4480;52.370;9.748;2024-02-28T06:23:15;1.60;99.90
8888;DHT22;4480;52.370;9.748;2024-02-28T06:25:43;1.60;99.90
8888;DHT22;4480;52.370;9.748;2024-02-28T06:28:10;1.60;99.90
8888;DHT22;4480;52.370;9.748;2024-02-28T06:30:38;1.70;99.90
8888;DHT22;4480;52.370;9.748;2024-02-28T06:33:04;1.70;99.90
8888;DHT22;4480;52.370;9.748;2024-02-28T06:35:31;1.70;99.90
8888;DHT22;4480;52.370;9.748;2024-02-28T06:37:58;1.70;99.90
8888;DHT22;4480;52.370;9.748;2024-02-28T06:40:25;1.70;99.90
8888;DHT22;4480;52.370;9.748;2024-02-28T06:42:51;1.70;99.90
8888;DHT22;4480;52.370;9.748;2024-02-28T06:45:17;1.70;99.90
8888;DHT22;4480;52.370;9.748;2024-02-28T06:47:46;1.70;99.90
8888;DHT22;4480;52.370;9.748;2024-02-28T06:50:14;1.70;99.90
8888;DHT22;4480;52.370;9.748;2024-02-28T06:52:41;1.80;99.90
8888;DHT22;4480;52.370;9.748;2024-02-28T06:55:08;1.80;99.90
8888;DHT22;4480;52.370;9.748;2024-02-28T06:57:35;1.80;99.90
8888;DHT22;4480;52.370;9.748;2024-02-28T07:00:03;1.90;99.90
8888;DHT22;4480;52.370;9.748;2024-02-28T07:02:30;2.00;99.90
8888;DHT22;4480;52.370;9.748;2024-02-28T07:04:58;2.00;99.90
8888;DHT22;4480;52.370;9.748;2024-02-28T07:07:25;2.10;99.90
8888;DHT22;4480;52.370;9.748;2024-02-28T07:09:51;2.10;99.90
8888;DHT22;4480;52.370;9.748;2024-02-28T07:12:18;2.20;99.90
8888;DHT22;4480;52.370;9.748;2024-02-28T07:14:45;2.30;99.90
8888;DHT22;4480;52.370;9.748;2024-02-28T07:17:12;2.30;99.90
8888;DHT22;4480;52.370;9.748;2024-02-28T07:19:38;2.30;99.90
8888;DHT22;4480;52.370;9.748;2024-02-28T07:22:06;2.30;99.90
8888;DHT22;4480;52.370;9.748;2024-02-28T07:24:33;2.30;99.90
8888;DHT22;4480;52.370;9.748;2024-02-28T07:27:00;2.40;99.90
8888;DHT22;4480;52.370;9.748;2024-02-28T07:29:27;2.40;99.90
8888;DHT22;4480;52.370;9.748;2024-02-28T07:31:54;2.50;99.90
8888;DHT22;4480;52.370;9.748;2024-02-28T07:34:20;2.60;99.90
8888;DHT22;4480;52.370;9.748;2024-02-28T07:36:47;2.80;99.90
8888;DHT22;4480;52.370;9.748;2024-02-28T07:39:15;2.90;99.90
8888;DHT22;4480;52.370;9.748;2024-02-28T07:41:42;3.00;99.90
8888;DHT22;4480;52.370;9.748;2024-02-28T07:44:09;3.10;99.90
8888;DHT22;4480;52.370;9.748;2024-02-28T07:46:36;3.10;99.90
8888;DHT22;4480;52.370;9.748;2024-02-28T07:49:04;3.10;99.90
8888;DHT22;4480;52.370;9.748;2024-02-28T07:51:30;3.10;99.90
8888;DHT22;4480;52.370;9.748;2024-02-28T07:53:57;3.10;99.90
8888;DHT22;4480;52.370;9.748;2024-02-28T07:56:25;3.10;99.90
8888;DHT22;4480;52.370;9.748;2024-02-28T07:58:52;3.20;99.90
8888;DHT22;4480;52.370;9.748;2024-02-28T08:01:19;3.30;99.90
8888;DHT22;4480;52.370;9.748;2024-02-28T08:03:47;3.40;99.90
8888;DHT22;4480;52.370;9.748;2024-02-28T08:06:14;3.50;99.90
8888;DHT22;4480;52.370;9.748;2024-02-28T08:08:44;3.60;99.90
8888;DHT22;4480;52.370;9.748;2024-02-28T08:11:10;3.70;99.90
8888;DHT22;4480;52.370;9.748;2024-02-28T08:13:39;3.80;99.90
8888;DHT22;4480;52.370;9.748;2024-02-28T08:16:05;3.90;99.90
8888;DHT22;4480;52.370;9.748;2024-02-28T08:18:34;4.00;99.90
8888;DHT22;4480;52.370;9.748;2024-02-28T08:21:01;3.90;99.90
8888;DHT22;4480;52.370;9.748;2024-02-28T08:23:29;3.90;99.90
8888;DHT22;4480;52.370;9.748;2024-02-28T08:25:56;3.80;99.90
8888;DHT22;4480;52.370;9.748;2024-02-28T08:28:22;3.80;99.90
8888;DHT22;4480;52.370;9.748;2024-02-28T08:30:51;4.00;99.90
8888;DHT22;4480;52.370;9.748;2024-02-28T08:33:17;4.20;99.90
8888;DHT22;4480;52.370;9.748;2024-02-28T08:35:44;4.40;99.90
8888;DHT22;4480;52.370;9.748;2024-02-28T08:38:11;4.50;99.90
8888;DHT22;4480;52.370;9.748;2024-02-28T08:40:38;4.60;99.90
8888;DHT22;4480;52.370;9.748;2024-02-28T08:43:05;4.70;99.90
8888;DHT22;4480;52.370;9.748;2024-02-28T08:45:32;4.90;99.90
8888;DHT22;4480;52.370;9.748;2024-02-28T08:48:00;4.90;99.90
8888;DHT22;4480;52.370;9.748;2024-02-28T08:50:27;5.00;99.90
8888;DHT22;4480;52.370;9.748;2024-02-28T08:52:54;5.00;99.90
8888;DHT22;4480;52.370;9.748;2024-02-28T08:55:21;5.10;99.90
8888;DHT22;4480;52.370;9.748;2024-02-28T08:57:48;5.20;99.90
8888;DHT22;4480;52.370;9.748;2024-02-28T09:00:15;5.20;99.90
8888;DHT22;4480;52.370;9.748;2024-02-28T09:02:43;5.20;99.90
8888;DHT22;4480;52.370;9.748;2024-02-28T09:05:11;5.20;99.90
8888;DHT22;4480;52.370;9.748;2024-02-28T09:07:38;5.10;99.90
8888;DHT22;4480;52.370;9.748;2024-02-28T09:10:05;5.00;99.90
8888;DHT22;4480;52.370;9.748;2024-02-28T09:12:32;5.10;99.90
8888;DHT22;4480;52.370;9.748;2024-02-28T09:14:59;5.20;99.90
8888;DHT22;4480;52.370;9.748;2024-02-28T09:17:26;5.30;99.90
8888;DHT22;4480;52.370;9.748;2024-02-28T09:19:53;5.40;99.90
8888;DHT22;4480;52.370;9.748;2024-02-28T09:22:21;5.50;99.90
8888;DHT22;4480;52.370;9.748;2024-02-28T09:24:49;5.40;99.90
8888;DHT22;4480;52.370;9.748;2024-02-28T09:27:16;5.40;99.90
8888;DHT22;4480;52.370;9.748;2024-02-28T09:29:43;5.40;99.90
8888;DHT22;4480;52.370;9.748;2024-02-28T09:32:11;5.50;99.90
8888;DHT22;4480;52.370;9.748;2024-02-28T09:34:38;5.60;99.90
8888;DHT22;4480;52.370;9.748;2024-02-28T09:37:04;5.70;99.90
8888;DHT22;4480;52.370;9.748;2024-02-28T09:39:33;5.70;99.90
8888;DHT22;4480;52.370;9.748;2024-02-28T09:42:00;5.80;99.90
8888;DHT22;4480;52.370;9.748;2024-02-28T09:44:26;5.90;99.90
8888;DHT22;4480;52.370;9.748;2024-02-28T09:46:53;5.90;99.90
8888;DHT22;4480;52.370;9.748;2024-02-28T09:49:20;5.90;99.90
8888;DHT22;4480;52.370;9.748;2024-02-28T09:51:49;5.80;99.90
8888;DHT22;4480;52.370;9.748;2024-02-28T09:54:16;5.90;99.90
8888;DHT22;4480;52.370;9.748;2024-02-28T09:56:45;6.10;99.90
8888;DHT22;4480;52.370;9.748;2024-02-28T09:59:13;6.20;99.90
8888;DHT22;4480;52.370;9.748;2024-02-28T10:01:43;6.30;99.90
8888;DHT22;4480;52.370;9.748;2024-02-28T10:04:10;6.30;99.90
8888;DHT22;4480;52.370;9.748;2024-02-28T10:06:38;6.40;99.90
8888;DHT22;4480;52.370;9.748;2024-02-28T10:09:05;6.50;99.90
8888;DHT22;4480;52.370;9.748;2024-02-28T10:11:32;6.50;99.90
8888;DHT22;4480;52.370;9.748;2024-02-28T10:14:02;6.50;99.90
8888;DHT22;4480;52.370;9.748;2024-02-28T10:16:29;6.60;99.90
8888;DHT22;4480;52.370;9.748;2024-02-28T10:18:56;6.60;99.90
8888;DHT22;4480;52.370;9.748;2024-02-28T10:21:22;6.70;99.90
8888;DHT22;4480;52.370;9.748;2024-02-28T10:23:51;6.70;99.90
8888;DHT22;4480;52.370;9.748;2024-02-28T10:26:18;6.80;99.90
8888;DHT22;4480;52.370;9.748;2024-02-28T10:28:45;6.80;99.90
8888;DHT22;4480;52.370;9.748;2024-02-28T10:31:14;6.80;99.90
8888;DHT22;4480;52.370;9.748;2024-02-28T10:33:41;6.90;99.90
8888;DHT22;4480;52.370;9.748;2024-02-28T10:36:09;7.00;99.90
8888;DHT22;4480;52.370;9.748;2024-02-28T10:38:35;7.00;99.90
8888;DHT22;4480;52.370;9.748;2024-02-28T10:41:04;7.10;99.90
8888;DHT22;4480;52.370;9.748;2024-02-28T10:43:31;7.10;99.90
8888;DHT22;4480;52.370;9.748;2024-02-28T10:46:00;7.20;99.90
8888;DHT22;4480;52.370;9.748;2024-02-28T10:48:28;7.30;99.90
8888;DHT22;4480;52.370;9.748;2024-02-28T10:50:55;7.40;99.90
8888;DHT22;4480;52.370;9.748;2024-02-28T10:53:22;7.40;99.90
8888;DHT22;4480;52.370;9.748;2024-02-28T10:55:54;7.50;99.90
8888;DHT22;4480;52.370;9.748;2024-02-28T10:58:25;7.60;99.90
8888;DHT22;4480;52.370;9.748;2024-02-28T11:00:55;7.80;99.90
8888;DHT22;4480;52.370;9.748;2024-02-28T11:03:22;8.00;99.90
8888;DHT22;4480;52.370;9.748;2024-02-28T11:05:50;8.00;99.90
8888;DHT22;4480;52.370;9.748;2024-02-28T11:08:21;7.90;99.90
8888;DHT22;4480;52.370;9.748;2024-02-28T11:10:55;7.70;99.90
8888;DHT22;4480;52.370;9.748;2024-02-28T11:13:22;7.50;99.90
8888;DHT22;4480;52.370;9.748;2024-02-28T11:15:49;7.30;99.90
8888;DHT22;4480;52.370;9.748;2024-02-28T11:18:16;7.20;99.90
8888;DHT22;4480;52.370;9.748;2024-02-28T11:20:43;7.10;99.90
8888;DHT22;4480;52.370;9.748;2024-02-28T11:23:13;6.90;99.90
8888;DHT22;4480;52.370;9.748;2024-02-28T11:25:41;6.90;99.90
8888;DHT22;4480;52.370;9.748;2024-02-28T11:28:08;6.80;99.90
8888;DHT22;4480;52.370;9.748;2024-02-28T11:30:35;6.80;99.90
8888;DHT22;4480;52.370;9.748;2024-02-28T11:33:01;6.90;99.90
8888;DHT22;4480;52.370;9.748;2024-02-28T11:35:28;7.00;99.90
8888;DHT22;4480;52.370;9.748;2024-02-28T11:37:56;7.10;99.90
8888;DHT22;4480;52.370;9.748;2024-02-28T11:40:25;7.10;99.90
8888;DHT22;4480;52.370;9.748;2024-02-28T11:42:52;7.10;99.90
8888;DHT22;4480;52.370;9.748;2024-02-28T11:45:19;7.10;99.90
8888;DHT22;4480;52.370;9.748;2024-02-28T11:47:45;7.10;99.90
8888;DHT22;4480;52.370;9.748;2024-02-28T11:50:12;7.20;99.90
8888;DHT22;4480;52.370;9.748;2024-02-28T11:52:40;7.20;99.90
8888;DHT22;4480;52.370;9.748;2024-02-28T11:55:07;7.30;99.90
8888;DHT22;4480;52.370;9.748;2024-02-28T11:57:36;7.40;99.90
8888;DHT22;4480;52.370;9.748;2024-02-28T12:00:05;7.60;99.90
8888;DHT22;4480;52.370;9.748;2024-02-28T12:02:33;7.70;99.90
8888;DHT22;4480;52.370;9.748;2024-02-28T12:05:01;8.00;99.90
8888;DHT22;4480;52.370;9.748;2024-02-28T12:07:29;8.10;99.90
8888;DHT22;4480;52.370;9.748;2024-02-28T12:09:56;8.10;99.90
8888;DHT22;4480;52.370;9.748;2024-02-28T12:12:23;8.20;99.90
8888;DHT22;4480;52.370;9.748;2024-02-28T12:14:51;8.30;99.90
8888;DHT22;4480;52.370;9.748;2024-02-28T12:17:18;8.40;99.90
8888;DHT22;4480;52.370;9.748;2024-02-28T12:19:45;8.50;99.90
8888;DHT22;4480;52.370;9.748;2024-02-28T12:22:12;8.80;99.90
8888;DHT22;4480;52.370;9.748;2024-02-28T12:24:38;8.90;99.90
8888;DHT22;4480;52.370;9.748;2024-02-28T12:27:05;8.90;99.90
8888;DHT22;4480;52.370;9.748;2024-02-28T12:29:32;8.80;99.90
8888;DHT22;4480;52.370;9.748;2024-02-28T12:32:00;8.70;99.90
8888;DHT22;4480;52.370;9.748;2024-02-28T12:34:27;8.70;99.90
8888;DHT22;4480;52.370;9.748;2024-02-28T12:36:53;8.70;99.90
8888;DHT22;4480;52.370;9.748;2024-02-28T12:39:20;8.70;99.90
8888;DHT22;4480;52.370;9.748;2024-02-28T12:41:48;8.80;99.90
8888;DHT22;4480;52.370;9.748;2024-02-28T12:44:15;8.80;99.90
8888;DHT22;4480;52.370;9.748;2024-02-28T12:46:41;8.90;99.90
8888;DHT22;4480;52.370;9.748;2024-02-28T12:49:09;8.90;99.90
8888;DHT22;4480;52.370;9.748;2024-02-28T12:51:38;9.00;99.90
8888;DHT22;4480;52.370;9.748;2024-02-28T12:54:06;9.10;99.90
8888;DHT22;4480;52.370;9.748;2024-02-28T12:56:33;9.10;99.90
8888;DHT22;4480;52.370;9.748;2024-02-28T12:58:59;8.90;99.90
8888;DHT22;4480;52.370;9.748;2024-02-28T13:01:27;8.90;99.90
8888;DHT22;4480;52.370;9.748;2024-02-28T13:03:54;8.80;99.90
8888;DHT22;4480;52.370;9.748;2024-02-28T13:06:22;8.80;99.90
8888;DHT22;4480;52.370;9.748;2024-02-28T13:08:49;8.80;99.90
8888;DHT22;4480;52.370;9.748;2024-02-28T13:11:18;8.90;99.90
8888;DHT22;4480;52.370;9.748;2024-02-28T13:13:45;8.90;99.90
8888;DHT22;4480;52.370;9.748;2024-02-28T13:16:12;8.80;99.90
8888;DHT22;4480;52.370;9.748;2024-02-28T13:18:39;8.80;99.80
8888;DHT22;4480;52.370;9.748;2024-02-28T13:21:06;8.70;99.70
8888;DHT22;4480;52.370;9.748;2024-02-28T13:23:34;8.60;99.70
8888;DHT22;4480;52.370;9.748;2024-02-28T13:26:00;8.60;99.90
8888;DHT22;4480;52.370;9.748;2024-02-28T13:28:27;8.50;99.90
8888;DHT22;4480;52.370;9.748;2024-02-28T13:30:56;8.50;99.80
8888;DHT22;4480;52.370;9.748;2024-02-28T13:33:23;8.40;99.80
8888;DHT22;4480;52.370;9.748;2024-02-28T13:35:49;8.40;99.90
8888;DHT22;4480;52.370;9.748;2024-02-28T13:38:17;8.50;99.90
8888;DHT22;4480;52.370;9.748;2024-02-28T13:40:46;8.50;99.40
8888;DHT22;4480;52.370;9.748;2024-02-28T13:43:13;8.40;99.70
8888;DHT22;4480;52.370;9.748;2024-02-28T13:45:40;8.50;99.90
8888;DHT22;4480;52.370;9.748;2024-02-28T13:48:15;8.60;99.80
8888;DHT22;4480;52.370;9.748;2024-02-28T13:50:43;8.60;99.50
8888;DHT22;4480;52.370;9.748;2024-02-28T13:53:10;8.70;99.30
8888;DHT22;4480;52.370;9.748;2024-02-28T13:55:36;8.70;99.40
8888;DHT22;4480;52.370;9.748;2024-02-28T13:58:05;8.70;99.30
8888;DHT22;4480;52.370;9.748;2024-02-28T14:00:33;8.80;99.40
8888;DHT22;4480;52.370;9.748;2024-02-28T14:03:00;8.80;99.10
8888;DHT22;4480;52.370;9.748;2024-02-28T14:05:27;8.80;98.90
8888;DHT22;4480;52.370;9.748;2024-02-28T14:07:54;8.80;98.90
8888;DHT22;4480;52.370;9.748;2024-02-28T14:10:21;8.80;98.70
8888;DHT22;4480;52.370;9.748;2024-02-28T14:12:48;8.70;98.50
8888;DHT22;4480;52.370;9.748;2024-02-28T14:15:16;8.70;98.70
8888;DHT22;4480;52.370;9.748;2024-02-28T14:17:43;8.70;98.60
8888;DHT22;4480;52.370;9.748;2024-02-28T14:20:11;8.70;98.60
8888;DHT22;4480;52.370;9.748;2024-02-28T14:22:39;8.60;98.40
8888;DHT22;4480;52.370;9.748;2024-02-28T14:25:10;8.60;98.70
8888;DHT22;4480;52.370;9.748;2024-02-28T14:27:37;8.60;98.90
8888;DHT22;4480;52.370;9.748;2024-02-28T14:30:05;8.70;98.90
8888;DHT22;4480;52.370;9.748;2024-02-28T14:32:35;8.80;98.90
8888;DHT22;4480;52.370;9.748;2024-02-28T14:35:02;8.80;98.30
8888;DHT22;4480;52.370;9.748;2024-02-28T14:37:30;8.90;98.10
8888;DHT22;4480;52.370;9.748;2024-02-28T14:39:56;8.90;98.20
8888;DHT22;4480;52.370;9.748;2024-02-28T14:42:23;9.00;98.10
8888;DHT22;4480;52.370;9.748;2024-02-28T14:44:50;9.10;97.90
8888;DHT22;4480;52.370;9.748;2024-02-28T14:47:18;9.20;97.60
8888;DHT22;4480;52.370;9.748;2024-02-28T14:49:46;9.30;97.10
8888;DHT22;4480;52.370;9.748;2024-02-28T14:52:13;9.30;96.60
8888;DHT22;4480;52.370;9.748;2024-02-28T14:54:40;9.20;96.40
8888;DHT22;4480;52.370;9.748;2024-02-28T14:57:07;9.20;96.70
8888;DHT22;4480;52.370;9.748;2024-02-28T14:59:33;9.30;96.80
8888;DHT22;4480;52.370;9.748;2024-02-28T15:02:00;9.40;96.70
8888;DHT22;4480;52.370;9.748;2024-02-28T15:04:27;9.40;96.30
8888;DHT22;4480;52.370;9.748;2024-02-28T15:06:55;9.40;96.00
8888;DHT22;4480;52.370;9.748;2024-02-28T15:09:22;9.40;95.80
8888;DHT22;4480;52.370;9.748;2024-02-28T15:11:49;9.30;95.80
8888;DHT22;4480;52.370;9.748;2024-02-28T15:14:16;9.20;95.90
8888;DHT22;4480;52.370;9.748;2024-02-28T15:16:42;9.00;95.90
8888;DHT22;4480;52.370;9.748;2024-02-28T15:19:09;8.90;96.00
8888;DHT22;4480;52.370;9.748;2024-02-28T15:21:36;8.80;96.30
8888;DHT22;4480;52.370;9.748;2024-02-28T15:24:04;8.70;96.70
8888;DHT22;4480;52.370;9.748;2024-02-28T15:26:31;8.70;96.80
8888;DHT22;4480;52.370;9.748;2024-02-28T15:28:58;8.70;96.80
8888;DHT22;4480;52.370;9.748;2024-02-28T15:31:25;8.60;96.70
8888;DHT22;4480;52.370;9.748;2024-02-28T15:33:53;8.60;96.80
8888;DHT22;4480;52.370;9.748;2024-02-28T15:36:20;8.60;96.90
8888;DHT22;4480;52.370;9.748;2024-02-28T15:38:46;8.60;97.00
8888;DHT22;4480;52.370;9.748;2024-02-28T15:41:15;8.60;97.00
8888;DHT22;4480;52.370;9.748;2024-02-28T15:43:41;8.60;96.90
8888;DHT22;4480;52.370;9.748;2024-02-28T15:46:08;8.50;96.90
8888;DHT22;4480;52.370;9.748;2024-02-28T15:48:36;8.40;97.20
8888;DHT22;4480;52.370;9.748;2024-02-28T15:51:03;8.40;97.40
8888;DHT22;4480;52.370;9.748;2024-02-28T15:53:30;8.30;97.50
8888;DHT22;4480;52.370;9.748;2024-02-28T15:55:57;8.20;97.50
8888;DHT22;4480;52.370;9.748;2024-02-28T15:58:25;8.10;97.70
8888;DHT22;4480;52.370;9.748;2024-02-28T16:00:52;8.10;97.80
8888;DHT22;4480;52.370;9.748;2024-02-28T16:03:19;8.00;98.10
8888;DHT22;4480;52.370;9.748;2024-02-28T16:05:46;7.90;98.30
8888;DHT22;4480;52.370;9.748;2024-02-28T16:08:12;7.90;98.40
8888;DHT22;4480;52.370;9.748;2024-02-28T16:10:39;7.80;98.60
8888;DHT22;4480;52.370;9.748;2024-02-28T16:13:06;7.70;98.80
8888;DHT22;4480;52.370;9.748;2024-02-28T16:15:34;7.70;99.20
8888;DHT22;4480;52.370;9.748;2024-02-28T16:18:01;7.60;99.40